createdAt,value
2017-02-05T00:00:43.350Z,998.18
2017-02-05T00:01:52.775Z,998.19
2017-02-05T00:03:03.355Z,998.26
2017-02-05T00:04:13.166Z,998.26
2017-02-05T00:05:23.015Z,998.23
2017-02-05T00:06:32.823Z,998.25
2017-02-05T00:07:42.631Z,998.25
2017-02-05T00:08:52.823Z,998.3
2017-02-05T00:10:03.066Z,998.29
2017-02-05T00:11:12.488Z,998.31
2017-02-05T00:12:21.915Z,998.35
2017-02-05T00:13:31.344Z,998.3
2017-02-05T00:14:41.538Z,998.26
2017-02-05T00:15:51.348Z,998.27
2017-02-05T00:17:00.391Z,998.32
2017-02-05T00:18:10.582Z,998.25
2017-02-05T00:19:20.780Z,998.3
2017-02-05T00:20:29.829Z,998.26
2017-02-05T00:21:39.684Z,998.36
2017-02-05T00:22:49.877Z,998.33
2017-02-05T00:23:58.927Z,998.27
2017-02-05T00:25:07.969Z,998.29
2017-02-05T00:26:17.398Z,998.36
2017-02-05T00:27:26.827Z,998.3
2017-02-05T00:28:36.249Z,998.3
2017-02-05T00:29:46.447Z,998.35
2017-02-05T00:30:55.873Z,998.31
2017-02-05T00:32:05.697Z,998.37
2017-02-05T00:33:15.508Z,998.34
2017-02-05T00:34:24.940Z,998.33
2017-02-05T00:35:34.367Z,998.35
2017-02-05T00:36:44.178Z,998.35
2017-02-05T00:37:53.993Z,998.32
2017-02-05T00:39:03.850Z,998.38
2017-02-05T00:40:13.318Z,998.38
2017-02-05T00:41:22.765Z,998.33
2017-02-05T00:42:31.812Z,998.35
2017-02-05T00:43:40.861Z,998.38
2017-02-05T00:44:50.288Z,998.4
2017-02-05T00:46:00.098Z,998.42
2017-02-05T00:47:09.144Z,998.39
2017-02-05T00:48:18.569Z,998.41
2017-02-05T00:49:28.381Z,998.44
2017-02-05T00:50:38.195Z,998.47
2017-02-05T00:51:47.626Z,998.44
2017-02-05T00:52:57.061Z,998.45
2017-02-05T00:54:06.488Z,998.46
2017-02-05T00:55:15.913Z,998.38
2017-02-05T00:56:25.337Z,998.39
2017-02-05T00:57:34.763Z,998.46
2017-02-05T00:58:44.189Z,998.41
2017-02-05T00:59:53.234Z,998.4
2017-02-05T01:01:02.660Z,998.5
2017-02-05T01:02:12.472Z,998.42
2017-02-05T01:03:21.900Z,998.49
2017-02-05T01:04:30.943Z,998.46
2017-02-05T01:05:39.986Z,998.5
2017-02-05T01:06:49.033Z,998.48
2017-02-05T01:07:58.843Z,998.49
2017-02-05T01:09:09.041Z,998.52
2017-02-05T01:10:18.467Z,998.51
2017-02-05T01:11:28.292Z,998.44
2017-02-05T01:12:37.723Z,998.54
2017-02-05T01:13:46.431Z,998.49
2017-02-05T01:14:56.240Z,998.53
2017-02-05T01:16:06.430Z,998.47
2017-02-05T01:17:15.866Z,998.52
2017-02-05T01:18:26.056Z,998.5
2017-02-05T01:19:36.246Z,998.52
2017-02-05T01:20:45.706Z,998.51
2017-02-05T01:21:55.527Z,998.53
2017-02-05T01:23:04.572Z,998.56
2017-02-05T01:24:14.769Z,998.54
2017-02-05T01:25:24.246Z,998.56
2017-02-05T01:26:34.060Z,998.56
2017-02-05T01:27:44.252Z,998.63
2017-02-05T01:28:54.440Z,998.55
2017-02-05T01:30:04.255Z,998.63
2017-02-05T01:31:14.452Z,998.58
2017-02-05T01:32:24.650Z,998.61
2017-02-05T01:33:34.466Z,998.59
2017-02-05T01:34:43.894Z,998.6
2017-02-05T01:35:53.323Z,998.62
2017-02-05T01:37:02.752Z,998.58
2017-02-05T01:38:12.560Z,998.58
2017-02-05T01:39:21.994Z,998.64
2017-02-05T01:40:31.803Z,998.58
2017-02-05T01:41:41.235Z,998.6
2017-02-05T01:42:50.712Z,998.65
2017-02-05T01:44:00.520Z,998.61
2017-02-05T01:45:10.328Z,998.65
2017-02-05T01:46:19.375Z,998.66
2017-02-05T01:47:29.183Z,998.69
2017-02-05T01:48:38.988Z,998.74
2017-02-05T01:49:48.792Z,998.74
2017-02-05T01:50:57.842Z,998.73
2017-02-05T01:52:07.652Z,998.75
2017-02-05T01:53:17.078Z,998.73
2017-02-05T01:54:26.889Z,998.72
2017-02-05T01:55:37.081Z,998.69
2017-02-05T01:56:46.892Z,998.76
2017-02-05T01:57:56.704Z,998.74
2017-02-05T01:59:05.740Z,998.81
2017-02-05T02:00:15.218Z,998.8
2017-02-05T02:01:25.027Z,998.75
2017-02-05T02:02:34.834Z,998.79
2017-02-05T02:03:44.640Z,998.77
2017-02-05T02:04:54.835Z,998.8
2017-02-05T02:06:04.263Z,998.81
2017-02-05T02:07:13.312Z,998.81
2017-02-05T02:08:22.737Z,998.77
2017-02-05T02:09:31.783Z,998.78
2017-02-05T02:10:41.208Z,998.86
2017-02-05T02:11:51.398Z,998.85
2017-02-05T02:13:00.826Z,998.83
2017-02-05T02:14:09.868Z,998.84
2017-02-05T02:15:20.062Z,998.84
2017-02-05T02:16:29.486Z,998.81
2017-02-05T02:17:38.584Z,998.82
2017-02-05T02:18:47.244Z,998.8
2017-02-05T02:19:56.671Z,998.82
2017-02-05T02:21:06.482Z,998.8
2017-02-05T02:22:16.298Z,998.81
2017-02-05T02:23:25.347Z,998.84
2017-02-05T02:24:35.928Z,998.81
2017-02-05T02:25:45.356Z,998.84
2017-02-05T02:26:54.399Z,998.82
2017-02-05T02:28:03.825Z,998.88
2017-02-05T02:29:13.638Z,998.85
2017-02-05T02:30:23.457Z,998.86
2017-02-05T02:31:33.268Z,998.84
2017-02-05T02:32:43.463Z,998.82
2017-02-05T02:33:53.660Z,998.86
2017-02-05T02:35:03.145Z,998.87
2017-02-05T02:36:12.574Z,998.84
2017-02-05T02:37:22.000Z,998.86
2017-02-05T02:38:32.189Z,998.87
2017-02-05T02:39:41.662Z,998.87
2017-02-05T02:40:51.091Z,998.88
2017-02-05T02:42:00.897Z,998.87
2017-02-05T02:43:10.355Z,998.86
2017-02-05T02:44:20.163Z,998.94
2017-02-05T02:45:30.355Z,998.91
2017-02-05T02:46:39.405Z,998.9
2017-02-05T02:47:48.831Z,998.91
2017-02-05T02:48:58.253Z,998.99
2017-02-05T02:50:08.446Z,998.94
2017-02-05T02:51:17.871Z,999.02
2017-02-05T02:52:27.682Z,999
2017-02-05T02:53:37.872Z,999.05
2017-02-05T02:54:47.682Z,999.05
2017-02-05T02:55:57.105Z,999.05
2017-02-05T02:57:06.536Z,999.02
2017-02-05T02:58:15.963Z,998.94
2017-02-05T02:59:25.770Z,999
2017-02-05T03:00:35.198Z,998.94
2017-02-05T03:01:45.008Z,998.89
2017-02-05T03:02:54.817Z,998.92
2017-02-05T03:04:05.057Z,998.96
2017-02-05T03:05:14.868Z,998.9
2017-02-05T03:06:23.920Z,998.93
2017-02-05T03:07:33.729Z,998.92
2017-02-05T03:08:43.162Z,998.89
2017-02-05T03:09:52.587Z,998.88
2017-02-05T03:11:02.398Z,998.9
2017-02-05T03:12:12.590Z,998.94
2017-02-05T03:13:22.016Z,998.91
2017-02-05T03:14:31.824Z,998.88
2017-02-05T03:15:41.628Z,998.94
2017-02-05T03:16:51.059Z,998.95
2017-02-05T03:18:00.101Z,998.95
2017-02-05T03:19:09.141Z,998.95
2017-02-05T03:20:18.983Z,998.87
2017-02-05T03:21:28.843Z,998.94
2017-02-05T03:22:39.033Z,998.92
2017-02-05T03:23:48.463Z,998.94
2017-02-05T03:24:58.269Z,998.96
2017-02-05T03:26:08.076Z,998.98
2017-02-05T03:27:17.120Z,998.99
2017-02-05T03:28:27.314Z,999
2017-02-05T03:29:36.744Z,998.96
2017-02-05T03:30:47.328Z,999.02
2017-02-05T03:31:56.750Z,999.02
2017-02-05T03:33:06.179Z,999.04
2017-02-05T03:34:15.611Z,999.1
2017-02-05T03:35:25.041Z,999.07
2017-02-05T03:36:34.467Z,999.03
2017-02-05T03:37:44.662Z,999.1
2017-02-05T03:38:55.288Z,999.08
2017-02-05T03:40:04.715Z,999.09
2017-02-05T03:41:13.810Z,999.1
2017-02-05T03:42:22.825Z,999.14
2017-02-05T03:43:31.862Z,999.16
2017-02-05T03:44:40.913Z,999.12
2017-02-05T03:45:49.956Z,999.13
2017-02-05T03:47:00.152Z,999.13
2017-02-05T03:48:09.966Z,999.12
2017-02-05T03:49:19.395Z,999.1
2017-02-05T03:50:28.433Z,999.11
2017-02-05T03:51:37.852Z,999.12
2017-02-05T03:52:47.662Z,999.09
2017-02-05T03:53:57.094Z,999.07
2017-02-05T03:55:06.907Z,999.12
2017-02-05T03:56:15.949Z,999.13
2017-02-05T03:57:25.380Z,999.1
2017-02-05T03:58:34.042Z,999.12
2017-02-05T03:59:44.239Z,999.17
2017-02-05T04:00:54.432Z,999.17
2017-02-05T04:02:04.238Z,999.18
2017-02-05T04:03:14.058Z,999.19
2017-02-05T04:04:23.870Z,999.17
2017-02-05T04:05:33.683Z,999.18
2017-02-05T04:06:43.500Z,999.17
2017-02-05T04:07:52.978Z,999.11
2017-02-05T04:09:02.789Z,999.15
2017-02-05T04:10:12.217Z,999.16
2017-02-05T04:11:22.035Z,999.21
2017-02-05T04:12:31.848Z,999.26
2017-02-05T04:13:40.897Z,999.19
2017-02-05T04:14:51.478Z,999.25
2017-02-05T04:16:00.904Z,999.23
2017-02-05T04:17:10.328Z,999.22
2017-02-05T04:18:20.521Z,999.23
2017-02-05T04:19:29.942Z,999.24
2017-02-05T04:20:38.984Z,999.26
2017-02-05T04:21:48.791Z,999.28
2017-02-05T04:22:58.600Z,999.26
2017-02-05T04:24:08.793Z,999.22
2017-02-05T04:25:18.217Z,999.25
2017-02-05T04:26:28.409Z,999.24
2017-02-05T04:27:38.218Z,999.25
2017-02-05T04:28:48.409Z,999.27
2017-02-05T04:29:57.834Z,999.26
2017-02-05T04:31:06.495Z,999.21
2017-02-05T04:32:16.302Z,999.22
2017-02-05T04:33:26.493Z,999.29
2017-02-05T04:34:36.688Z,999.3
2017-02-05T04:35:47.292Z,999.31
2017-02-05T04:36:56.717Z,999.35
2017-02-05T04:38:05.759Z,999.39
2017-02-05T04:39:15.570Z,999.33
2017-02-05T04:40:24.990Z,999.37
2017-02-05T04:41:34.415Z,999.41
2017-02-05T04:42:43.128Z,999.45
2017-02-05T04:43:52.940Z,999.42
2017-02-05T04:45:03.131Z,999.44
2017-02-05T04:46:12.941Z,999.4
2017-02-05T04:47:21.988Z,999.41
2017-02-05T04:48:31.798Z,999.4
2017-02-05T04:49:41.223Z,999.39
2017-02-05T04:50:51.417Z,999.41
2017-02-05T04:52:01.611Z,999.35
2017-02-05T04:53:11.033Z,999.36
2017-02-05T04:54:20.469Z,999.29
2017-02-05T04:55:29.894Z,999.35
2017-02-05T04:56:39.703Z,999.37
2017-02-05T04:57:48.757Z,999.33
2017-02-05T04:58:58.566Z,999.33
2017-02-05T05:00:07.229Z,999.28
2017-02-05T05:01:16.697Z,999.26
2017-02-05T05:02:26.128Z,999.29
2017-02-05T05:03:35.551Z,999.21
2017-02-05T05:04:45.397Z,999.21
2017-02-05T05:05:55.202Z,999.2
2017-02-05T05:07:04.626Z,999.16
2017-02-05T05:08:14.056Z,999.12
2017-02-05T05:09:23.479Z,999.17
2017-02-05T05:10:32.906Z,999.18
2017-02-05T05:11:43.532Z,999.19
2017-02-05T05:12:52.954Z,999.2
2017-02-05T05:14:02.765Z,999.16
2017-02-05T05:15:12.571Z,999.17
2017-02-05T05:16:21.624Z,999.17
2017-02-05T05:17:31.050Z,999.15
2017-02-05T05:18:41.239Z,999.17
2017-02-05T05:19:50.670Z,999.16
2017-02-05T05:21:00.868Z,999.1
2017-02-05T05:22:09.536Z,999.13
2017-02-05T05:23:19.397Z,999.12
2017-02-05T05:24:28.824Z,999.08
2017-02-05T05:25:38.638Z,999.11
2017-02-05T05:26:48.448Z,999.15
2017-02-05T05:27:57.880Z,999.13
2017-02-05T05:29:07.311Z,999.1
2017-02-05T05:30:16.735Z,999.17
2017-02-05T05:31:26.932Z,999.15
2017-02-05T05:32:36.361Z,999.15
2017-02-05T05:33:45.802Z,999.17
2017-02-05T05:34:55.997Z,999.16
2017-02-05T05:36:05.040Z,999.16
2017-02-05T05:37:14.087Z,999.18
2017-02-05T05:38:23.896Z,999.2
2017-02-05T05:39:32.938Z,999.24
2017-02-05T05:40:43.130Z,999.17
2017-02-05T05:41:52.936Z,999.21
2017-02-05T05:43:01.980Z,999.23
2017-02-05T05:44:11.407Z,999.16
2017-02-05T05:45:21.212Z,999.21
2017-02-05T05:46:31.073Z,999.18
2017-02-05T05:47:40.885Z,999.13
2017-02-05T05:48:51.081Z,999.14
2017-02-05T05:50:00.508Z,999.13
2017-02-05T05:51:09.555Z,999.17
2017-02-05T05:52:18.982Z,999.18
2017-02-05T05:53:28.408Z,999.17
2017-02-05T05:54:37.069Z,999.11
2017-02-05T05:55:46.495Z,999.1
2017-02-05T05:56:55.921Z,999.07
2017-02-05T05:58:05.387Z,999.07
2017-02-05T05:59:14.423Z,999.1
2017-02-05T06:00:23.462Z,999.06
2017-02-05T06:01:33.655Z,999.12
2017-02-05T06:02:42.692Z,999.14
2017-02-05T06:03:52.123Z,999.16
2017-02-05T06:05:01.931Z,999.2
2017-02-05T06:06:11.362Z,999.19
2017-02-05T06:07:20.405Z,999.21
2017-02-05T06:08:29.826Z,999.27
2017-02-05T06:09:38.868Z,999.25
2017-02-05T06:10:49.062Z,999.24
2017-02-05T06:11:58.103Z,999.24
2017-02-05T06:13:07.912Z,999.2
2017-02-05T06:14:17.720Z,999.17
2017-02-05T06:15:27.196Z,999.15
2017-02-05T06:16:36.619Z,999.17
2017-02-05T06:17:45.667Z,999.2
2017-02-05T06:18:54.332Z,999.21
2017-02-05T06:20:04.143Z,999.22
2017-02-05T06:21:14.721Z,999.15
2017-02-05T06:22:24.528Z,999.17
2017-02-05T06:23:34.333Z,999.14
2017-02-05T06:24:44.530Z,999.14
2017-02-05T06:25:55.107Z,999.15
2017-02-05T06:27:04.586Z,999.13
2017-02-05T06:28:14.016Z,999.16
2017-02-05T06:29:24.214Z,999.2
2017-02-05T06:30:34.036Z,999.21
2017-02-05T06:31:43.464Z,999.26
2017-02-05T06:32:52.898Z,999.29
2017-02-05T06:34:02.709Z,999.28
2017-02-05T06:35:12.138Z,999.29
2017-02-05T06:36:21.182Z,999.3
2017-02-05T06:37:30.997Z,999.33
2017-02-05T06:38:41.188Z,999.33
2017-02-05T06:39:50.614Z,999.38
2017-02-05T06:41:00.043Z,999.35
2017-02-05T06:42:09.850Z,999.35
2017-02-05T06:43:19.667Z,999.31
2017-02-05T06:44:29.474Z,999.37
2017-02-05T06:45:38.903Z,999.39
2017-02-05T06:46:49.098Z,999.42
2017-02-05T06:47:58.522Z,999.49
2017-02-05T06:49:07.948Z,999.58
2017-02-05T06:50:18.139Z,999.64
2017-02-05T06:51:28.372Z,999.59
2017-02-05T06:52:37.793Z,999.62
2017-02-05T06:53:47.218Z,999.69
2017-02-05T06:54:56.648Z,999.64
2017-02-05T06:56:06.468Z,999.65
2017-02-05T06:57:16.279Z,999.63
2017-02-05T06:58:25.703Z,999.68
2017-02-05T06:59:35.513Z,999.62
2017-02-05T07:00:45.327Z,999.65
2017-02-05T07:01:54.808Z,999.71
2017-02-05T07:03:04.622Z,999.7
2017-02-05T07:04:14.055Z,999.71
2017-02-05T07:05:23.487Z,999.7
2017-02-05T07:06:33.300Z,999.7
2017-02-05T07:07:42.740Z,999.7
2017-02-05T07:08:51.784Z,999.7
2017-02-05T07:10:01.591Z,999.72
2017-02-05T07:11:11.031Z,999.73
2017-02-05T07:12:21.253Z,999.71
2017-02-05T07:13:30.730Z,999.66
2017-02-05T07:14:40.921Z,999.66
2017-02-05T07:15:50.765Z,999.68
2017-02-05T07:17:00.587Z,999.66
2017-02-05T07:18:10.018Z,999.64
2017-02-05T07:19:20.261Z,999.65
2017-02-05T07:20:29.690Z,999.63
2017-02-05T07:21:39.507Z,999.65
2017-02-05T07:22:48.932Z,999.65
2017-02-05T07:23:58.358Z,999.66
2017-02-05T07:25:07.786Z,999.67
2017-02-05T07:26:17.207Z,999.64
2017-02-05T07:27:27.401Z,999.71
2017-02-05T07:28:37.597Z,999.76
2017-02-05T07:29:47.411Z,999.74
2017-02-05T07:30:56.877Z,999.73
2017-02-05T07:32:06.688Z,999.76
2017-02-05T07:33:16.501Z,999.73
2017-02-05T07:34:26.311Z,999.77
2017-02-05T07:35:36.122Z,999.77
2017-02-05T07:36:45.550Z,999.77
2017-02-05T07:37:55.361Z,999.74
2017-02-05T07:39:05.170Z,999.75
2017-02-05T07:40:15.367Z,999.71
2017-02-05T07:41:24.417Z,999.75
2017-02-05T07:42:34.664Z,999.71
2017-02-05T07:43:43.714Z,999.75
2017-02-05T07:44:53.144Z,999.78
2017-02-05T07:46:03.340Z,999.79
2017-02-05T07:47:12.003Z,999.74
2017-02-05T07:48:22.204Z,999.71
2017-02-05T07:49:31.632Z,999.69
2017-02-05T07:50:41.449Z,999.77
2017-02-05T07:51:50.112Z,999.76
2017-02-05T07:52:59.544Z,999.8
2017-02-05T07:54:09.352Z,999.75
2017-02-05T07:55:19.551Z,999.78
2017-02-05T07:56:28.978Z,999.8
2017-02-05T07:57:38.021Z,999.76
2017-02-05T07:58:48.218Z,999.8
2017-02-05T07:59:58.415Z,999.78
2017-02-05T08:01:07.849Z,999.81
2017-02-05T08:02:16.515Z,999.84
2017-02-05T08:03:26.327Z,999.81
2017-02-05T08:04:35.751Z,999.81
2017-02-05T08:05:45.177Z,999.85
2017-02-05T08:06:54.986Z,999.86
2017-02-05T08:08:04.027Z,999.86
2017-02-05T08:09:13.072Z,999.88
2017-02-05T08:10:23.308Z,999.87
2017-02-05T08:11:33.119Z,999.87
2017-02-05T08:12:42.933Z,999.83
2017-02-05T08:13:51.985Z,999.8
2017-02-05T08:15:01.415Z,999.77
2017-02-05T08:16:11.225Z,999.8
2017-02-05T08:17:20.270Z,999.77
2017-02-05T08:18:29.702Z,999.79
2017-02-05T08:19:39.130Z,999.82
2017-02-05T08:20:48.941Z,999.79
2017-02-05T08:21:58.370Z,999.8
2017-02-05T08:23:08.231Z,999.82
2017-02-05T08:24:17.660Z,999.82
2017-02-05T08:25:27.089Z,999.79
2017-02-05T08:26:37.296Z,999.75
2017-02-05T08:27:46.726Z,999.74
2017-02-05T08:28:56.151Z,999.72
2017-02-05T08:30:06.349Z,999.77
2017-02-05T08:31:15.779Z,999.74
2017-02-05T08:32:25.595Z,999.74
2017-02-05T08:33:35.405Z,999.7
2017-02-05T08:34:44.502Z,999.71
2017-02-05T08:35:53.932Z,999.7
2017-02-05T08:37:03.745Z,999.69
2017-02-05T08:38:13.176Z,999.69
2017-02-05T08:39:23.412Z,999.7
2017-02-05T08:40:32.898Z,999.65
2017-02-05T08:41:43.099Z,999.66
2017-02-05T08:42:52.149Z,999.7
2017-02-05T08:44:02.352Z,999.74
2017-02-05T08:45:11.781Z,999.74
2017-02-05T08:46:21.591Z,999.75
2017-02-05T08:47:32.169Z,999.78
2017-02-05T08:48:41.603Z,999.75
2017-02-05T08:49:50.648Z,999.71
2017-02-05T08:50:59.700Z,999.74
2017-02-05T08:52:09.183Z,999.79
2017-02-05T08:53:19.005Z,999.75
2017-02-05T08:54:28.432Z,999.75
2017-02-05T08:55:37.907Z,999.79
2017-02-05T08:56:46.953Z,999.85
2017-02-05T08:57:56.382Z,999.85
2017-02-05T08:59:05.824Z,999.93
2017-02-05T09:00:14.874Z,999.85
2017-02-05T09:01:24.305Z,999.89
2017-02-05T09:02:34.504Z,999.87
2017-02-05T09:03:45.140Z,999.88
2017-02-05T09:04:54.599Z,999.89
2017-02-05T09:06:04.421Z,999.93
2017-02-05T09:07:13.469Z,999.94
2017-02-05T09:08:22.898Z,999.89
2017-02-05T09:09:33.144Z,999.88
2017-02-05T09:10:42.569Z,999.84
2017-02-05T09:11:52.002Z,999.85
2017-02-05T09:13:01.430Z,999.76
2017-02-05T09:14:12.015Z,999.74
2017-02-05T09:15:21.060Z,999.79
2017-02-05T09:16:30.494Z,999.83
2017-02-05T09:17:40.305Z,999.8
2017-02-05T09:18:49.739Z,999.82
2017-02-05T09:19:59.553Z,999.81
2017-02-05T09:21:08.599Z,999.78
2017-02-05T09:22:17.645Z,999.81
2017-02-05T09:23:27.842Z,999.84
2017-02-05T09:24:37.271Z,999.79
2017-02-05T09:25:46.315Z,999.86
2017-02-05T09:26:56.511Z,999.82
2017-02-05T09:28:06.706Z,999.85
2017-02-05T09:29:15.758Z,999.87
2017-02-05T09:30:25.961Z,999.81
2017-02-05T09:31:35.017Z,999.92
2017-02-05T09:32:44.922Z,999.9
2017-02-05T09:33:54.356Z,999.87
2017-02-05T09:35:03.401Z,999.94
2017-02-05T09:36:12.833Z,1000.01
2017-02-05T09:37:23.031Z,1000.05
2017-02-05T09:38:32.511Z,1000.09
2017-02-05T09:39:41.554Z,1000.16
2017-02-05T09:40:51.369Z,1000.13
2017-02-05T09:42:00.800Z,1000.15
2017-02-05T09:43:10.617Z,1000.08
2017-02-05T09:44:19.717Z,1000.11
2017-02-05T09:45:29.144Z,1000.06
2017-02-05T09:46:38.954Z,1000.12
2017-02-05T09:47:48.388Z,1000.13
2017-02-05T09:48:57.055Z,1000.11
2017-02-05T09:50:07.256Z,1000.08
2017-02-05T09:51:16.730Z,1000.08
2017-02-05T09:52:26.159Z,1000.02
2017-02-05T09:53:35.593Z,1000.06
2017-02-05T09:54:45.026Z,1000
2017-02-05T09:55:54.843Z,1000.02
2017-02-05T09:57:04.656Z,1000.02
2017-02-05T09:58:14.115Z,1000.04
2017-02-05T09:59:24.182Z,1000.01
2017-02-05T10:00:33.800Z,1000.02
2017-02-05T10:01:43.641Z,1000.04
2017-02-05T10:02:53.080Z,999.94
2017-02-05T10:04:03.276Z,1000.02
2017-02-05T10:05:12.734Z,999.98
2017-02-05T10:06:21.787Z,1000
2017-02-05T10:07:31.667Z,1000.03
2017-02-05T10:08:40.715Z,1000.11
2017-02-05T10:09:50.536Z,1000.13
2017-02-05T10:11:00.355Z,1000.11
2017-02-05T10:12:09.403Z,1000.04
2017-02-05T10:13:19.270Z,1000.08
2017-02-05T10:14:28.315Z,1000.06
2017-02-05T10:15:37.744Z,1000.05
2017-02-05T10:16:47.615Z,1000.01
2017-02-05T10:17:57.050Z,1000.05
2017-02-05T10:19:06.921Z,1000.01
2017-02-05T10:20:16.739Z,1000.1
2017-02-05T10:21:25.795Z,1000.12
2017-02-05T10:22:34.845Z,1000.17
2017-02-05T10:23:43.894Z,1000.12
2017-02-05T10:24:52.559Z,1000.06
2017-02-05T10:26:01.995Z,1000.09
2017-02-05T10:27:11.808Z,1000.11
2017-02-05T10:28:21.242Z,1000.07
2017-02-05T10:29:31.053Z,1000.03
2017-02-05T10:30:40.874Z,1000.05
2017-02-05T10:31:50.308Z,1000.01
2017-02-05T10:33:00.125Z,1000.06
2017-02-05T10:34:09.559Z,1000.02
2017-02-05T10:35:19.029Z,1000
2017-02-05T10:36:29.225Z,1000.01
2017-02-05T10:37:39.044Z,1000.03
2017-02-05T10:38:48.475Z,999.96
2017-02-05T10:39:57.911Z,999.93
2017-02-05T10:41:07.342Z,999.94
2017-02-05T10:42:17.156Z,999.96
2017-02-05T10:43:26.208Z,999.98
2017-02-05T10:44:36.022Z,999.95
2017-02-05T10:45:45.837Z,999.96
2017-02-05T10:46:55.650Z,999.91
2017-02-05T10:48:05.084Z,999.91
2017-02-05T10:49:14.518Z,999.84
2017-02-05T10:50:24.335Z,999.89
2017-02-05T10:51:33.386Z,999.9
2017-02-05T10:52:42.436Z,999.79
2017-02-05T10:53:52.301Z,999.78
2017-02-05T10:55:01.368Z,999.8
2017-02-05T10:56:11.580Z,999.79
2017-02-05T10:57:21.410Z,999.83
2017-02-05T10:58:30.843Z,999.83
2017-02-05T10:59:40.668Z,999.78
2017-02-05T11:00:50.486Z,999.76
2017-02-05T11:02:00.310Z,999.68
2017-02-05T11:03:09.359Z,999.71
2017-02-05T11:04:18.831Z,999.69
2017-02-05T11:05:28.264Z,999.68
2017-02-05T11:06:38.080Z,999.7
2017-02-05T11:07:47.513Z,999.71
2017-02-05T11:08:56.179Z,999.66
2017-02-05T11:10:06.036Z,999.67
2017-02-05T11:11:15.518Z,999.7
2017-02-05T11:12:24.193Z,999.7
2017-02-05T11:13:34.393Z,999.76
2017-02-05T11:14:43.834Z,999.7
2017-02-05T11:15:53.267Z,999.74
2017-02-05T11:17:03.142Z,999.71
2017-02-05T11:18:12.195Z,999.77
2017-02-05T11:19:21.626Z,999.78
2017-02-05T11:20:30.294Z,999.87
2017-02-05T11:21:39.727Z,999.91
2017-02-05T11:22:49.542Z,999.91
2017-02-05T11:23:58.986Z,999.88
2017-02-05T11:25:08.416Z,999.89
2017-02-05T11:26:18.617Z,999.91
2017-02-05T11:27:28.050Z,999.93
2017-02-05T11:28:37.535Z,999.93
2017-02-05T11:29:47.351Z,999.93
2017-02-05T11:30:56.411Z,999.99
2017-02-05T11:32:06.641Z,1000.02
2017-02-05T11:33:16.079Z,1000.03
2017-02-05T11:34:25.564Z,1000.03
2017-02-05T11:35:34.234Z,999.99
2017-02-05T11:36:44.051Z,999.97
2017-02-05T11:37:53.101Z,999.95
2017-02-05T11:39:02.539Z,999.99
2017-02-05T11:40:11.259Z,999.95
2017-02-05T11:41:20.311Z,1000
2017-02-05T11:42:29.745Z,1000
2017-02-05T11:43:39.183Z,1000
2017-02-05T11:44:48.235Z,999.99
2017-02-05T11:45:57.719Z,1000.05
2017-02-05T11:47:06.768Z,1000.07
2017-02-05T11:48:16.209Z,1000.07
2017-02-05T11:49:25.643Z,1000.04
2017-02-05T11:50:35.853Z,1000.02
2017-02-05T11:51:45.749Z,1000.07
2017-02-05T11:52:55.187Z,1000.05
2017-02-05T11:54:03.856Z,1000.03
2017-02-05T11:55:12.908Z,1000.01
2017-02-05T11:56:21.953Z,1000.02
2017-02-05T11:57:30.673Z,1000.06
2017-02-05T11:58:39.338Z,1000.02
2017-02-05T11:59:49.164Z,999.99
2017-02-05T12:00:58.988Z,1000.03
2017-02-05T12:02:08.423Z,1000.02
2017-02-05T12:03:17.858Z,999.95
2017-02-05T12:04:27.294Z,999.99
2017-02-05T12:05:37.105Z,999.98
2017-02-05T12:06:46.546Z,999.96
2017-02-05T12:07:55.976Z,999.98
2017-02-05T12:09:05.415Z,999.94
2017-02-05T12:10:15.227Z,1000
2017-02-05T12:11:25.047Z,1000
2017-02-05T12:12:34.482Z,999.99
2017-02-05T12:13:43.952Z,1000.01
2017-02-05T12:14:53.055Z,999.97
2017-02-05T12:16:02.880Z,999.93
2017-02-05T12:17:13.082Z,999.94
2017-02-05T12:18:22.142Z,999.93
2017-02-05T12:19:31.961Z,999.93
2017-02-05T12:20:41.443Z,999.94
2017-02-05T12:21:51.259Z,999.92
2017-02-05T12:23:01.463Z,999.87
2017-02-05T12:24:10.896Z,999.85
2017-02-05T12:25:21.480Z,999.83
2017-02-05T12:26:31.355Z,999.84
2017-02-05T12:27:41.181Z,999.82
2017-02-05T12:28:51.383Z,999.87
2017-02-05T12:30:00.821Z,999.86
2017-02-05T12:31:09.876Z,999.89
2017-02-05T12:32:19.691Z,999.89
2017-02-05T12:33:29.157Z,999.9
2017-02-05T12:34:38.973Z,999.91
2017-02-05T12:35:49.562Z,999.91
2017-02-05T12:36:58.997Z,999.88
2017-02-05T12:38:08.821Z,999.86
2017-02-05T12:39:18.650Z,999.88
2017-02-05T12:40:28.843Z,999.86
2017-02-05T12:41:38.276Z,999.87
2017-02-05T12:42:47.713Z,999.88
2017-02-05T12:43:57.196Z,999.89
2017-02-05T12:45:06.251Z,999.85
2017-02-05T12:46:15.684Z,999.85
2017-02-05T12:47:25.502Z,999.88
2017-02-05T12:48:35.321Z,999.91
2017-02-05T12:49:45.190Z,999.92
2017-02-05T12:50:54.626Z,999.87
2017-02-05T12:52:04.829Z,999.82
2017-02-05T12:53:13.886Z,999.86
2017-02-05T12:54:23.320Z,999.85
2017-02-05T12:55:32.751Z,999.86
2017-02-05T12:56:41.806Z,999.87
2017-02-05T12:57:51.627Z,999.87
2017-02-05T12:59:01.447Z,999.89
2017-02-05T13:00:11.267Z,999.88
2017-02-05T13:01:21.465Z,999.87
2017-02-05T13:02:30.517Z,999.87
2017-02-05T13:03:39.946Z,999.82
2017-02-05T13:04:49.376Z,999.84
2017-02-05T13:05:59.194Z,999.85
2017-02-05T13:07:08.292Z,999.85
2017-02-05T13:08:18.110Z,999.84
2017-02-05T13:09:27.928Z,999.85
2017-02-05T13:10:36.975Z,999.87
2017-02-05T13:11:46.788Z,999.9
2017-02-05T13:12:57.074Z,999.87
2017-02-05T13:14:05.744Z,999.87
2017-02-05T13:15:15.936Z,999.92
2017-02-05T13:16:25.753Z,999.91
2017-02-05T13:17:35.571Z,999.9
2017-02-05T13:18:45.053Z,999.92
2017-02-05T13:19:55.250Z,999.88
2017-02-05T13:21:04.684Z,999.85
2017-02-05T13:22:14.124Z,999.91
2017-02-05T13:23:23.939Z,999.9
2017-02-05T13:24:33.431Z,999.92
2017-02-05T13:25:42.864Z,999.94
2017-02-05T13:26:52.297Z,999.99
2017-02-05T13:28:01.349Z,999.99
2017-02-05T13:29:10.403Z,999.96
2017-02-05T13:30:20.666Z,1000.06
2017-02-05T13:31:30.485Z,1000.06
2017-02-05T13:32:40.683Z,1000.08
2017-02-05T13:33:50.500Z,1000.1
2017-02-05T13:35:00.702Z,1000.12
2017-02-05T13:36:10.514Z,1000.09
2017-02-05T13:37:19.561Z,1000.09
2017-02-05T13:38:29.382Z,1000.11
2017-02-05T13:39:39.198Z,1000.1
2017-02-05T13:40:48.637Z,1000.13
2017-02-05T13:41:57.691Z,1000.12
2017-02-05T13:43:07.123Z,1000.03
2017-02-05T13:44:15.833Z,1000.04
2017-02-05T13:45:25.647Z,1000.07
2017-02-05T13:46:34.702Z,1000.1
2017-02-05T13:47:44.956Z,1000.04
2017-02-05T13:48:55.164Z,1000.08
2017-02-05T13:50:04.212Z,1000.03
2017-02-05T13:51:14.029Z,1000.02
2017-02-05T13:52:23.082Z,1000.02
2017-02-05T13:53:32.127Z,999.98
2017-02-05T13:54:42.326Z,1000.02
2017-02-05T13:55:52.528Z,1000.05
2017-02-05T13:57:02.731Z,1000
2017-02-05T13:58:12.547Z,1000.03
2017-02-05T13:59:21.986Z,1000.05
2017-02-05T14:00:31.423Z,1000
2017-02-05T14:01:40.477Z,1000.01
2017-02-05T14:02:50.680Z,1000
2017-02-05T14:04:00.117Z,1000.02
2017-02-05T14:05:09.610Z,1000.03
2017-02-05T14:06:18.659Z,999.96
2017-02-05T14:07:27.325Z,999.97
2017-02-05T14:08:36.758Z,999.96
2017-02-05T14:09:46.961Z,999.99
2017-02-05T14:10:57.206Z,1000.01
2017-02-05T14:12:05.872Z,999.98
2017-02-05T14:13:14.929Z,999.99
2017-02-05T14:14:25.126Z,999.95
2017-02-05T14:15:34.942Z,999.99
2017-02-05T14:16:45.192Z,1000.04
2017-02-05T14:17:54.243Z,1000.05
2017-02-05T14:19:03.677Z,1000.07
2017-02-05T14:20:13.111Z,1000.05
2017-02-05T14:21:22.547Z,1000.04
2017-02-05T14:22:32.363Z,1000.02
2017-02-05T14:23:41.796Z,1000.01
2017-02-05T14:24:52.000Z,1000.01
2017-02-05T14:26:01.439Z,1000.02
2017-02-05T14:27:11.641Z,1000.04
2017-02-05T14:28:21.512Z,1000.06